sensor_id;sensor_type;location;lat;lon;timestamp;pressure;altitude;pressure_sealevel;temperature;humidity
11345;BME280;5727;42.600;23.028;2023-05-19T00:00:54;93887.97;;;11.16;100.00
11345;BME280;5727;42.600;23.028;2023-05-19T00:03:21;93890.19;;;11.26;100.00
11345;BME280;5727;42.600;23.028;2023-05-19T00:05:51;93881.44;;;11.34;100.00
11345;BME280;5727;42.600;23.028;2023-05-19T00:08:19;93886.28;;;11.44;100.00
11345;BME280;5727;42.600;23.028;2023-05-19T00:10:48;93878.63;;;11.51;100.00
11345;BME280;5727;42.600;23.028;2023-05-19T00:13:15;93875.88;;;11.47;100.00
11345;BME280;5727;42.600;23.028;2023-05-19T00:15:43;93878.50;;;11.47;100.00
11345;BME280;5727;42.600;23.028;2023-05-19T00:18:09;93873.38;;;11.51;100.00
11345;BME280;5727;42.600;23.028;2023-05-19T00:20:38;93876.78;;;11.63;100.00
11345;BME280;5727;42.600;23.028;2023-05-19T00:23:06;93877.91;;;11.74;100.00
11345;BME280;5727;42.600;23.028;2023-05-19T00:25:33;93875.50;;;11.81;100.00
11345;BME280;5727;42.600;23.028;2023-05-19T00:28:01;93879.53;;;11.91;100.00
11345;BME280;5727;42.600;23.028;2023-05-19T00:30:28;93878.47;;;11.92;100.00
11345;BME280;5727;42.600;23.028;2023-05-19T00:32:55;93876.72;;;11.96;100.00
11345;BME280;5727;42.600;23.028;2023-05-19T00:35:22;93871.47;;;11.96;100.00
11345;BME280;5727;42.600;23.028;2023-05-19T00:37:49;93882.31;;;11.94;100.00
11345;BME280;5727;42.600;23.028;2023-05-19T00:40:17;93882.50;;;12.02;100.00
11345;BME280;5727;42.600;23.028;2023-05-19T00:42:44;93878.91;;;12.06;100.00
11345;BME280;5727;42.600;23.028;2023-05-19T00:45:10;93866.22;;;12.08;100.00
11345;BME280;5727;42.600;23.028;2023-05-19T00:47:38;93869.81;;;11.91;100.00
11345;BME280;5727;42.600;23.028;2023-05-19T00:50:05;93866.00;;;11.77;100.00
11345;BME280;5727;42.600;23.028;2023-05-19T00:52:32;93860.84;;;11.56;100.00
11345;BME280;5727;42.600;23.028;2023-05-19T00:54:58;93860.59;;;11.61;100.00
11345;BME280;5727;42.600;23.028;2023-05-19T00:57:27;93859.00;;;11.69;100.00
11345;BME280;5727;42.600;23.028;2023-05-19T00:59:53;93866.97;;;11.72;100.00
11345;BME280;5727;42.600;23.028;2023-05-19T01:02:20;93860.66;;;11.73;100.00
11345;BME280;5727;42.600;23.028;2023-05-19T01:04:49;93859.88;;;11.73;100.00
11345;BME280;5727;42.600;23.028;2023-05-19T01:07:16;93857.78;;;11.66;100.00
11345;BME280;5727;42.600;23.028;2023-05-19T01:09:43;93865.91;;;11.73;100.00
11345;BME280;5727;42.600;23.028;2023-05-19T01:12:10;93861.53;;;11.77;100.00
11345;BME280;5727;42.600;23.028;2023-05-19T01:14:38;93861.41;;;11.74;100.00
11345;BME280;5727;42.600;23.028;2023-05-19T01:17:08;93866.66;;;11.74;100.00
11345;BME280;5727;42.600;23.028;2023-05-19T01:19:52;93863.59;;;11.72;100.00
11345;BME280;5727;42.600;23.028;2023-05-19T01:22:29;93867.66;;;11.69;100.00
11345;BME280;5727;42.600;23.028;2023-05-19T01:28:19;93856.13;;;11.62;100.00
11345;BME280;5727;42.600;23.028;2023-05-19T01:30:54;93855.91;;;11.55;100.00
11345;BME280;5727;42.600;23.028;2023-05-19T01:33:23;93864.44;;;11.52;100.00
11345;BME280;5727;42.600;23.028;2023-05-19T01:35:50;93867.28;;;11.47;100.00
11345;BME280;5727;42.600;23.028;2023-05-19T01:38:19;93866.41;;;11.43;100.00
11345;BME280;5727;42.600;23.028;2023-05-19T01:40:48;93869.22;;;11.38;100.00
11345;BME280;5727;42.600;23.028;2023-05-19T01:43:19;93868.66;;;11.32;100.00
11345;BME280;5727;42.600;23.028;2023-05-19T01:45:46;93872.69;;;11.30;100.00
11345;BME280;5727;42.600;23.028;2023-05-19T01:48:16;93866.88;;;11.24;100.00
11345;BME280;5727;42.600;23.028;2023-05-19T01:50:43;93864.16;;;11.21;100.00
11345;BME280;5727;42.600;23.028;2023-05-19T01:53:10;93866.22;;;11.15;100.00
11345;BME280;5727;42.600;23.028;2023-05-19T01:55:42;93868.72;;;11.12;100.00
11345;BME280;5727;42.600;23.028;2023-05-19T01:58:17;93868.28;;;11.10;100.00
11345;BME280;5727;42.600;23.028;2023-05-19T02:00:51;93870.34;;;11.04;100.00
11345;BME280;5727;42.600;23.028;2023-05-19T02:03:28;93868.69;;;10.99;100.00
11345;BME280;5727;42.600;23.028;2023-05-19T02:06:04;93869.66;;;10.95;100.00
11345;BME280;5727;42.600;23.028;2023-05-19T02:08:42;93869.41;;;10.88;100.00
11345;BME280;5727;42.600;23.028;2023-05-19T02:11:13;93861.88;;;10.86;100.00
11345;BME280;5727;42.600;23.028;2023-05-19T02:13:42;93866.44;;;10.77;100.00
11345;BME280;5727;42.600;23.028;2023-05-19T02:16:10;93871.53;;;10.74;100.00
11345;BME280;5727;42.600;23.028;2023-05-19T02:18:40;93871.94;;;10.64;100.00
11345;BME280;5727;42.600;23.028;2023-05-19T02:21:09;93869.22;;;10.60;100.00
11345;BME280;5727;42.600;23.028;2023-05-19T02:23:38;93865.03;;;10.59;100.00
11345;BME280;5727;42.600;23.028;2023-05-19T02:26:05;93862.75;;;10.58;100.00
11345;BME280;5727;42.600;23.028;2023-05-19T02:28:33;93872.13;;;10.59;100.00
11345;BME280;5727;42.600;23.028;2023-05-19T02:30:59;93878.34;;;10.54;100.00
11345;BME280;5727;42.600;23.028;2023-05-19T02:33:27;93870.03;;;10.52;100.00
11345;BME280;5727;42.600;23.028;2023-05-19T02:35:56;93882.41;;;10.43;100.00
11345;BME280;5727;42.600;23.028;2023-05-19T02:38:22;93878.94;;;10.39;100.00
11345;BME280;5727;42.600;23.028;2023-05-19T02:40:50;93886.63;;;10.36;100.00
11345;BME280;5727;42.600;23.028;2023-05-19T02:43:17;93889.56;;;10.34;100.00
11345;BME280;5727;42.600;23.028;2023-05-19T02:45:44;93888.06;;;10.33;100.00
11345;BME280;5727;42.600;23.028;2023-05-19T02:48:11;93881.28;;;10.32;100.00
11345;BME280;5727;42.600;23.028;2023-05-19T02:50:37;93888.69;;;10.30;100.00
11345;BME280;5727;42.600;23.028;2023-05-19T02:53:05;93883.75;;;10.29;100.00
11345;BME280;5727;42.600;23.028;2023-05-19T02:55:32;93884.22;;;10.31;100.00
11345;BME280;5727;42.600;23.028;2023-05-19T02:57:59;93882.53;;;10.26;100.00
11345;BME280;5727;42.600;23.028;2023-05-19T03:00:26;93888.22;;;10.28;100.00
11345;BME280;5727;42.600;23.028;2023-05-19T03:02:52;93892.41;;;10.29;100.00
11345;BME280;5727;42.600;23.028;2023-05-19T03:05:19;93888.22;;;10.28;100.00
11345;BME280;5727;42.600;23.028;2023-05-19T03:07:46;93893.47;;;10.28;100.00
11345;BME280;5727;42.600;23.028;2023-05-19T03:10:14;93898.69;;;10.28;100.00
11345;BME280;5727;42.600;23.028;2023-05-19T03:12:41;93893.91;;;10.30;100.00
11345;BME280;5727;42.600;23.028;2023-05-19T03:15:09;93899.16;;;10.30;100.00
11345;BME280;5727;42.600;23.028;2023-05-19T03:17:37;93900.69;;;10.31;100.00
11345;BME280;5727;42.600;23.028;2023-05-19T03:20:06;93897.75;;;10.33;100.00
11345;BME280;5727;42.600;23.028;2023-05-19T03:22:33;93908.03;;;10.38;100.00
11345;BME280;5727;42.600;23.028;2023-05-19T03:25:00;93910.94;;;10.45;100.00
11345;BME280;5727;42.600;23.028;2023-05-19T03:27:29;93913.22;;;10.46;100.00
11345;BME280;5727;42.600;23.028;2023-05-19T03:29:55;93912.56;;;10.49;100.00
11345;BME280;5727;42.600;23.028;2023-05-19T03:32:22;93908.88;;;10.50;100.00
11345;BME280;5727;42.600;23.028;2023-05-19T03:34:49;93906.38;;;10.54;100.00
11345;BME280;5727;42.600;23.028;2023-05-19T03:37:16;93910.03;;;10.61;100.00
11345;BME280;5727;42.600;23.028;2023-05-19T03:39:42;93904.47;;;10.63;100.00
11345;BME280;5727;42.600;23.028;2023-05-19T03:42:09;93911.81;;;10.69;100.00
11345;BME280;5727;42.600;23.028;2023-05-19T03:44:37;93914.00;;;10.67;100.00
11345;BME280;5727;42.600;23.028;2023-05-19T03:47:04;93909.81;;;10.66;100.00
11345;BME280;5727;42.600;23.028;2023-05-19T03:49:31;93916.84;;;10.74;100.00
11345;BME280;5727;42.600;23.028;2023-05-19T03:51:58;93918.84;;;10.77;100.00
11345;BME280;5727;42.600;23.028;2023-05-19T03:54:27;93916.69;;;10.79;100.00
11345;BME280;5727;42.600;23.028;2023-05-19T03:56:54;93911.88;;;10.81;100.00
11345;BME280;5727;42.600;23.028;2023-05-19T03:59:21;93908.63;;;10.84;100.00
11345;BME280;5727;42.600;23.028;2023-05-19T04:01:50;93906.44;;;10.86;100.00
11345;BME280;5727;42.600;23.028;2023-05-19T04:04:17;93917.03;;;10.90;100.00
11345;BME280;5727;42.600;23.028;2023-05-19T04:06:44;93911.59;;;10.95;100.00
11345;BME280;5727;42.600;23.028;2023-05-19T04:09:12;93901.44;;;10.93;100.00
11345;BME280;5727;42.600;23.028;2023-05-19T04:11:39;93910.63;;;10.99;100.00
11345;BME280;5727;42.600;23.028;2023-05-19T04:14:06;93908.47;;;11.01;100.00
11345;BME280;5727;42.600;23.028;2023-05-19T04:16:33;93906.28;;;11.03;100.00
11345;BME280;5727;42.600;23.028;2023-05-19T04:19:01;93916.00;;;11.03;100.00
11345;BME280;5727;42.600;23.028;2023-05-19T04:21:28;93911.97;;;11.05;100.00
11345;BME280;5727;42.600;23.028;2023-05-19T04:23:55;93917.78;;;11.11;100.00
11345;BME280;5727;42.600;23.028;2023-05-19T04:26:23;93914.19;;;11.16;100.00
11345;BME280;5727;42.600;23.028;2023-05-19T04:28:51;93916.16;;;11.19;100.00
11345;BME280;5727;42.600;23.028;2023-05-19T04:31:18;93916.72;;;11.24;100.00
11345;BME280;5727;42.600;23.028;2023-05-19T04:33:46;93920.22;;;11.28;100.00
11345;BME280;5727;42.600;23.028;2023-05-19T04:36:15;93912.47;;;11.32;100.00
11345;BME280;5727;42.600;23.028;2023-05-19T04:38:45;93917.41;;;11.33;100.00
11345;BME280;5727;42.600;23.028;2023-05-19T04:41:12;93916.09;;;11.39;100.00
11345;BME280;5727;42.600;23.028;2023-05-19T04:43:40;93917.53;;;11.49;100.00
11345;BME280;5727;42.600;23.028;2023-05-19T04:46:09;93907.97;;;11.65;100.00
11345;BME280;5727;42.600;23.028;2023-05-19T04:48:36;93914.47;;;11.79;100.00
11345;BME280;5727;42.600;23.028;2023-05-19T04:51:04;93925.63;;;11.88;100.00
11345;BME280;5727;42.600;23.028;2023-05-19T04:53:33;93927.59;;;12.04;100.00
11345;BME280;5727;42.600;23.028;2023-05-19T04:56:00;93922.78;;;12.18;100.00
11345;BME280;5727;42.600;23.028;2023-05-19T04:58:27;93929.00;;;12.25;100.00
11345;BME280;5727;42.600;23.028;2023-05-19T05:00:54;93933.78;;;12.35;100.00
11345;BME280;5727;42.600;23.028;2023-05-19T05:03:22;93925.59;;;12.37;100.00
11345;BME280;5727;42.600;23.028;2023-05-19T05:05:49;93928.31;;;12.52;100.00
11345;BME280;5727;42.600;23.028;2023-05-19T05:08:16;93931.94;;;12.48;100.00
11345;BME280;5727;42.600;23.028;2023-05-19T05:10:49;93935.00;;;12.38;100.00
11345;BME280;5727;42.600;23.028;2023-05-19T05:13:17;93942.13;;;12.37;100.00
11345;BME280;5727;42.600;23.028;2023-05-19T05:15:44;93937.78;;;12.29;100.00
11345;BME280;5727;42.600;23.028;2023-05-19T05:18:12;93934.94;;;12.10;100.00
11345;BME280;5727;42.600;23.028;2023-05-19T05:20:40;93932.84;;;12.16;100.00
11345;BME280;5727;42.600;23.028;2023-05-19T05:23:07;93931.19;;;12.23;100.00
11345;BME280;5727;42.600;23.028;2023-05-19T05:25:35;93930.75;;;12.21;100.00
11345;BME280;5727;42.600;23.028;2023-05-19T05:28:04;93935.78;;;12.26;100.00
11345;BME280;5727;42.600;23.028;2023-05-19T05:30:32;93938.84;;;12.16;100.00
11345;BME280;5727;42.600;23.028;2023-05-19T05:32:59;93934.16;;;11.98;100.00
11345;BME280;5727;42.600;23.028;2023-05-19T05:35:26;93935.38;;;12.00;100.00
11345;BME280;5727;42.600;23.028;2023-05-19T05:37:53;93936.34;;;11.95;100.00
11345;BME280;5727;42.600;23.028;2023-05-19T05:40:20;93941.25;;;11.97;100.00
11345;BME280;5727;42.600;23.028;2023-05-19T05:42:47;93940.06;;;11.94;100.00
11345;BME280;5727;42.600;23.028;2023-05-19T05:45:15;93929.44;;;11.91;100.00
11345;BME280;5727;42.600;23.028;2023-05-19T05:47:42;93932.06;;;11.91;100.00
11345;BME280;5727;42.600;23.028;2023-05-19T05:50:11;93932.06;;;12.03;100.00
11345;BME280;5727;42.600;23.028;2023-05-19T05:52:39;93938.84;;;12.16;100.00
11345;BME280;5727;42.600;23.028;2023-05-19T05:55:08;93940.50;;;12.21;100.00
11345;BME280;5727;42.600;23.028;2023-05-19T05:57:34;93937.97;;;12.36;100.00
11345;BME280;5727;42.600;23.028;2023-05-19T06:00:01;93945.09;;;12.36;100.00
11345;BME280;5727;42.600;23.028;2023-05-19T06:02:34;93941.91;;;12.30;100.00
11345;BME280;5727;42.600;23.028;2023-05-19T06:05:01;93934.03;;;12.42;100.00
11345;BME280;5727;42.600;23.028;2023-05-19T06:07:27;93942.34;;;12.44;100.00
11345;BME280;5727;42.600;23.028;2023-05-19T06:09:54;93945.38;;;12.58;100.00
11345;BME280;5727;42.600;23.028;2023-05-19T06:12:21;93952.50;;;12.58;100.00
11345;BME280;5727;42.600;23.028;2023-05-19T06:14:48;93950.41;;;12.63;100.00
11345;BME280;5727;42.600;23.028;2023-05-19T06:17:16;93947.13;;;12.66;100.00
11345;BME280;5727;42.600;23.028;2023-05-19T06:19:44;93946.31;;;12.78;100.00
11345;BME280;5727;42.600;23.028;2023-05-19T06:22:11;93949.38;;;12.92;100.00
11345;BME280;5727;42.600;23.028;2023-05-19T06:24:37;93949.66;;;13.03;100.00
11345;BME280;5727;42.600;23.028;2023-05-19T06:27:04;93955.91;;;13.10;100.00
11345;BME280;5727;42.600;23.028;2023-05-19T06:29:31;93954.81;;;13.11;100.00
11345;BME280;5727;42.600;23.028;2023-05-19T06:31:58;93960.97;;;13.03;100.00
11345;BME280;5727;42.600;23.028;2023-05-19T06:34:24;93949.63;;;13.15;100.00
11345;BME280;5727;42.600;23.028;2023-05-19T06:36:53;93952.03;;;13.20;100.00
11345;BME280;5727;42.600;23.028;2023-05-19T06:39:19;93951.97;;;13.32;100.00
11345;BME280;5727;42.600;23.028;2023-05-19T06:41:46;93954.22;;;13.45;100.00
11345;BME280;5727;42.600;23.028;2023-05-19T06:44:13;93956.81;;;13.57;100.00
11345;BME280;5727;42.600;23.028;2023-05-19T06:46:40;93965.16;;;13.75;100.00
11345;BME280;5727;42.600;23.028;2023-05-19T06:49:06;93958.19;;;13.98;100.00
11345;BME280;5727;42.600;23.028;2023-05-19T06:51:33;93963.63;;;14.21;100.00
11345;BME280;5727;42.600;23.028;2023-05-19T06:54:01;93967.88;;;14.25;100.00
11345;BME280;5727;42.600;23.028;2023-05-19T06:56:28;93964.31;;;14.33;100.00
11345;BME280;5727;42.600;23.028;2023-05-19T06:58:55;93965.59;;;14.39;100.00
11345;BME280;5727;42.600;23.028;2023-05-19T07:01:21;93961.38;;;14.35;100.00
11345;BME280;5727;42.600;23.028;2023-05-19T07:03:48;93966.72;;;14.38;100.00
11345;BME280;5727;42.600;23.028;2023-05-19T07:06:15;93970.50;;;14.56;100.00
11345;BME280;5727;42.600;23.028;2023-05-19T07:08:42;93973.31;;;14.63;100.00
11345;BME280;5727;42.600;23.028;2023-05-19T07:11:10;93970.22;;;14.77;100.00
11345;BME280;5727;42.600;23.028;2023-05-19T07:13:36;93970.44;;;14.88;100.00
11345;BME280;5727;42.600;23.028;2023-05-19T07:16:03;93974.94;;;15.06;100.00
11345;BME280;5727;42.600;23.028;2023-05-19T07:18:30;93980.47;;;15.17;100.00
11345;BME280;5727;42.600;23.028;2023-05-19T07:20:57;93973.50;;;15.28;100.00
11345;BME280;5727;42.600;23.028;2023-05-19T07:23:24;93975.34;;;15.43;100.00
11345;BME280;5727;42.600;23.028;2023-05-19T07:25:53;93975.69;;;15.41;100.00
11345;BME280;5727;42.600;23.028;2023-05-19T07:28:21;93977.72;;;15.48;100.00
11345;BME280;5727;42.600;23.028;2023-05-19T07:30:48;93972.91;;;15.53;100.00
11345;BME280;5727;42.600;23.028;2023-05-19T07:33:15;93961.00;;;15.63;100.00
11345;BME280;5727;42.600;23.028;2023-05-19T07:35:42;93965.22;;;15.68;100.00
11345;BME280;5727;42.600;23.028;2023-05-19T07:38:09;93969.31;;;15.84;100.00
11345;BME280;5727;42.600;23.028;2023-05-19T07:40:36;93959.63;;;15.92;100.00
11345;BME280;5727;42.600;23.028;2023-05-19T07:43:03;93957.56;;;16.04;100.00
11345;BME280;5727;42.600;23.028;2023-05-19T07:45:31;93969.19;;;16.22;100.00
11345;BME280;5727;42.600;23.028;2023-05-19T07:47:58;93968.38;;;16.18;100.00
11345;BME280;5727;42.600;23.028;2023-05-19T07:50:24;93974.59;;;16.29;100.00
11345;BME280;5727;42.600;23.028;2023-05-19T07:52:51;93975.13;;;16.38;100.00
11345;BME280;5727;42.600;23.028;2023-05-19T07:55:18;93965.94;;;16.55;100.00
11345;BME280;5727;42.600;23.028;2023-05-19T07:57:47;93965.59;;;16.57;100.00
11345;BME280;5727;42.600;23.028;2023-05-19T08:00:15;93970.13;;;16.82;100.00
11345;BME280;5727;42.600;23.028;2023-05-19T08:02:43;93962.25;;;17.15;100.00
11345;BME280;5727;42.600;23.028;2023-05-19T08:05:10;93967.28;;;17.57;100.00
11345;BME280;5727;42.600;23.028;2023-05-19T08:07:37;93967.41;;;17.71;100.00
11345;BME280;5727;42.600;23.028;2023-05-19T08:10:04;93970.06;;;17.71;100.00
11345;BME280;5727;42.600;23.028;2023-05-19T08:12:31;93972.25;;;17.99;100.00
11345;BME280;5727;42.600;23.028;2023-05-19T08:14:57;93968.97;;;18.12;100.00
11345;BME280;5727;42.600;23.028;2023-05-19T08:17:24;93965.28;;;18.27;100.00
11345;BME280;5727;42.600;23.028;2023-05-19T08:19:52;93971.75;;;18.26;100.00
11345;BME280;5727;42.600;23.028;2023-05-19T08:22:19;93974.06;;;18.35;100.00
11345;BME280;5727;42.600;23.028;2023-05-19T08:24:46;93965.91;;;18.54;100.00
11345;BME280;5727;42.600;23.028;2023-05-19T08:27:14;93972.41;;;18.64;100.00
11345;BME280;5727;42.600;23.028;2023-05-19T08:29:40;93958.03;;;18.65;100.00
11345;BME280;5727;42.600;23.028;2023-05-19T08:32:07;93971.16;;;18.47;100.00
11345;BME280;5727;42.600;23.028;2023-05-19T08:34:34;93972.59;;;18.38;100.00
11345;BME280;5727;42.600;23.028;2023-05-19T08:37:02;93965.34;;;18.35;100.00
11345;BME280;5727;42.600;23.028;2023-05-19T08:39:29;93969.16;;;18.37;100.00
11345;BME280;5727;42.600;23.028;2023-05-19T08:41:58;93966.47;;;18.30;100.00
11345;BME280;5727;42.600;23.028;2023-05-19T08:44:25;93970.97;;;18.26;100.00
11345;BME280;5727;42.600;23.028;2023-05-19T08:46:54;93969.41;;;18.21;100.00
11345;BME280;5727;42.600;23.028;2023-05-19T08:49:22;93975.25;;;18.38;100.00
11345;BME280;5727;42.600;23.028;2023-05-19T08:51:56;93968.91;;;18.46;100.00
11345;BME280;5727;42.600;23.028;2023-05-19T08:54:32;93964.84;;;18.62;100.00
11345;BME280;5727;42.600;23.028;2023-05-19T08:57:01;93968.59;;;18.58;100.00
11345;BME280;5727;42.600;23.028;2023-05-19T08:59:29;93973.84;;;18.51;100.00
11345;BME280;5727;42.600;23.028;2023-05-19T09:01:56;93960.19;;;18.49;100.00
11345;BME280;5727;42.600;23.028;2023-05-19T09:04:24;93958.75;;;18.58;100.00
11345;BME280;5727;42.600;23.028;2023-05-19T09:06:52;93962.31;;;18.33;100.00
11345;BME280;5727;42.600;23.028;2023-05-19T09:09:19;93965.00;;;18.36;100.00
11345;BME280;5727;42.600;23.028;2023-05-19T09:11:47;93967.22;;;18.31;100.00
11345;BME280;5727;42.600;23.028;2023-05-19T09:14:14;93952.09;;;18.35;100.00
11345;BME280;5727;42.600;23.028;2023-05-19T09:16:40;93954.41;;;18.40;100.00
11345;BME280;5727;42.600;23.028;2023-05-19T09:19:12;93943.94;;;18.54;100.00
11345;BME280;5727;42.600;23.028;2023-05-19T09:21:39;93943.22;;;18.64;100.00
11345;BME280;5727;42.600;23.028;2023-05-19T09:24:08;93945.47;;;18.62;100.00
11345;BME280;5727;42.600;23.028;2023-05-19T09:26:35;93938.66;;;18.61;100.00
11345;BME280;5727;42.600;23.028;2023-05-19T09:29:11;93931.13;;;18.70;100.00
11345;BME280;5727;42.600;23.028;2023-05-19T09:31:37;93934.53;;;18.63;88.61
11345;BME280;5727;42.600;23.028;2023-05-19T09:34:10;93947.84;;;18.74;90.47
11345;BME280;5727;42.600;23.028;2023-05-19T09:36:38;93935.75;;;18.80;85.18
11345;BME280;5727;42.600;23.028;2023-05-19T09:39:11;93941.09;;;18.87;90.11
11345;BME280;5727;42.600;23.028;2023-05-19T09:41:39;93945.28;;;18.88;89.05
11345;BME280;5727;42.600;23.028;2023-05-19T09:44:05;93951.72;;;18.87;88.73
11345;BME280;5727;42.600;23.028;2023-05-19T09:46:33;93946.41;;;18.90;88.28
11345;BME280;5727;42.600;23.028;2023-05-19T09:49:07;93954.03;;;18.92;85.53
11345;BME280;5727;42.600;23.028;2023-05-19T09:51:34;93943.75;;;18.87;84.53
11345;BME280;5727;42.600;23.028;2023-05-19T09:54:02;93939.13;;;18.73;86.46
11345;BME280;5727;42.600;23.028;2023-05-19T09:56:32;93939.84;;;18.67;84.84
11345;BME280;5727;42.600;23.028;2023-05-19T09:59:00;93939.59;;;18.86;88.63
11345;BME280;5727;42.600;23.028;2023-05-19T10:01:27;93955.63;;;19.03;86.08
11345;BME280;5727;42.600;23.028;2023-05-19T10:03:57;93949.63;;;19.21;83.06
11345;BME280;5727;42.600;23.028;2023-05-19T10:06:24;93937.50;;;19.27;79.85
11345;BME280;5727;42.600;23.028;2023-05-19T10:08:51;93937.06;;;19.21;78.16
11345;BME280;5727;42.600;23.028;2023-05-19T10:11:19;93931.06;;;19.31;75.61
11345;BME280;5727;42.600;23.028;2023-05-19T10:13:49;93921.25;;;19.42;75.94
11345;BME280;5727;42.600;23.028;2023-05-19T10:16:17;93923.94;;;19.56;76.41
11345;BME280;5727;42.600;23.028;2023-05-19T10:18:44;93919.41;;;19.64;73.03
11345;BME280;5727;42.600;23.028;2023-05-19T10:21:12;93905.75;;;19.65;74.52
11345;BME280;5727;42.600;23.028;2023-05-19T10:23:39;93916.41;;;19.72;78.42
11345;BME280;5727;42.600;23.028;2023-05-19T10:26:07;93906.53;;;19.90;75.93
11345;BME280;5727;42.600;23.028;2023-05-19T10:28:37;93908.06;;;19.88;71.69
11345;BME280;5727;42.600;23.028;2023-05-19T10:31:07;93895.94;;;19.94;74.34
11345;BME280;5727;42.600;23.028;2023-05-19T10:33:44;93902.34;;;19.79;73.07
11345;BME280;5727;42.600;23.028;2023-05-19T10:36:28;93896.66;;;19.87;73.18
11345;BME280;5727;42.600;23.028;2023-05-19T10:39:03;93900.47;;;19.93;75.50
11345;BME280;5727;42.600;23.028;2023-05-19T10:41:38;93884.16;;;20.05;73.09
11345;BME280;5727;42.600;23.028;2023-05-19T10:44:11;93892.13;;;20.05;74.04
11345;BME280;5727;42.600;23.028;2023-05-19T10:46:42;93882.22;;;20.09;73.65
11345;BME280;5727;42.600;23.028;2023-05-19T10:49:09;93905.41;;;20.02;71.81
11345;BME280;5727;42.600;23.028;2023-05-19T10:51:37;93894.78;;;20.13;67.41
11345;BME280;5727;42.600;23.028;2023-05-19T10:54:07;93884.91;;;20.27;64.65
11345;BME280;5727;42.600;23.028;2023-05-19T10:56:38;93891.00;;;20.42;65.19
11345;BME280;5727;42.600;23.028;2023-05-19T10:59:06;93906.56;;;20.57;64.88
11345;BME280;5727;42.600;23.028;2023-05-19T11:01:34;93900.09;;;20.69;62.91
11345;BME280;5727;42.600;23.028;2023-05-19T11:04:06;93894.72;;;20.76;65.96
11345;BME280;5727;42.600;23.028;2023-05-19T11:06:37;93896.59;;;20.82;65.89
11345;BME280;5727;42.600;23.028;2023-05-19T11:09:12;93890.50;;;21.03;66.30
11345;BME280;5727;42.600;23.028;2023-05-19T11:11:46;93880.56;;;21.14;62.62
11345;BME280;5727;42.600;23.028;2023-05-19T11:14:15;93883.63;;;21.06;62.35
11345;BME280;5727;42.600;23.028;2023-05-19T11:16:45;93867.69;;;20.91;59.15
11345;BME280;5727;42.600;23.028;2023-05-19T11:19:17;93879.09;;;20.95;60.99
11345;BME280;5727;42.600;23.028;2023-05-19T11:21:49;93869.91;;;21.14;64.54
11345;BME280;5727;42.600;23.028;2023-05-19T11:24:35;93875.13;;;21.35;62.60
11345;BME280;5727;42.600;23.028;2023-05-19T11:27:21;93876.22;;;21.45;59.97
11345;BME280;5727;42.600;23.028;2023-05-19T11:29:49;93871.94;;;21.61;62.87
11345;BME280;5727;42.600;23.028;2023-05-19T11:32:17;93852.53;;;22.12;60.67
11345;BME280;5727;42.600;23.028;2023-05-19T11:34:44;93877.22;;;21.68;60.29
11345;BME280;5727;42.600;23.028;2023-05-19T11:37:12;93870.28;;;21.85;62.33
11345;BME280;5727;42.600;23.028;2023-05-19T11:39:39;93869.22;;;22.23;58.78
11345;BME280;5727;42.600;23.028;2023-05-19T11:42:08;93848.03;;;22.02;57.38
11345;BME280;5727;42.600;23.028;2023-05-19T11:44:35;93852.06;;;21.69;60.32
11345;BME280;5727;42.600;23.028;2023-05-19T11:47:03;93856.88;;;21.96;53.08
11345;BME280;5727;42.600;23.028;2023-05-19T11:49:29;93849.84;;;24.34;46.55
11345;BME280;5727;42.600;23.028;2023-05-19T11:51:58;93849.81;;;27.41;36.86
11345;BME280;5727;42.600;23.028;2023-05-19T11:54:30;93845.13;;;29.75;31.17
11345;BME280;5727;42.600;23.028;2023-05-19T11:56:59;93843.06;;;30.28;28.83
11345;BME280;5727;42.600;23.028;2023-05-19T11:59:30;93846.38;;;31.59;29.92
11345;BME280;5727;42.600;23.028;2023-05-19T12:02:00;93848.09;;;28.23;32.28
11345;BME280;5727;42.600;23.028;2023-05-19T12:04:28;93844.03;;;27.27;35.78
11345;BME280;5727;42.600;23.028;2023-05-19T12:06:55;93846.56;;;26.32;35.84
11345;BME280;5727;42.600;23.028;2023-05-19T12:09:22;93837.34;;;25.65;38.71
11345;BME280;5727;42.600;23.028;2023-05-19T12:11:51;93836.59;;;25.09;38.97
11345;BME280;5727;42.600;23.028;2023-05-19T12:14:18;93837.16;;;25.36;40.34
11345;BME280;5727;42.600;23.028;2023-05-19T12:16:44;93821.28;;;26.45;37.21
11345;BME280;5727;42.600;23.028;2023-05-19T12:19:11;93825.19;;;27.27;34.43
11345;BME280;5727;42.600;23.028;2023-05-19T12:21:38;93824.22;;;26.63;36.39
11345;BME280;5727;42.600;23.028;2023-05-19T12:24:05;93821.66;;;24.88;40.24
11345;BME280;5727;42.600;23.028;2023-05-19T12:26:34;93829.31;;;24.47;43.59
11345;BME280;5727;42.600;23.028;2023-05-19T12:29:03;93820.13;;;24.25;46.69
11345;BME280;5727;42.600;23.028;2023-05-19T12:31:31;93833.63;;;23.41;49.63
11345;BME280;5727;42.600;23.028;2023-05-19T12:33:58;93847.53;;;22.62;55.25
11345;BME280;5727;42.600;23.028;2023-05-19T12:36:25;93857.75;;;22.30;58.01
11345;BME280;5727;42.600;23.028;2023-05-19T12:38:53;93870.72;;;21.76;60.62
11345;BME280;5727;42.600;23.028;2023-05-19T12:41:20;93876.63;;;21.36;58.65
11345;BME280;5727;42.600;23.028;2023-05-19T12:43:47;93875.91;;;21.29;57.63
11345;BME280;5727;42.600;23.028;2023-05-19T12:46:17;93877.91;;;21.11;58.28
11345;BME280;5727;42.600;23.028;2023-05-19T12:48:46;93893.13;;;21.10;58.55
11345;BME280;5727;42.600;23.028;2023-05-19T12:51:16;93894.28;;;21.09;60.53
11345;BME280;5727;42.600;23.028;2023-05-19T12:53:43;93901.91;;;21.04;58.41
11345;BME280;5727;42.600;23.028;2023-05-19T12:56:11;93896.19;;;20.94;59.31
11345;BME280;5727;42.600;23.028;2023-05-19T12:58:39;93890.50;;;21.03;60.99
11345;BME280;5727;42.600;23.028;2023-05-19T13:01:16;93901.91;;;22.38;55.68